EGLD weather

Denham Aerodrome
Gerrards Cross, England, United Kingdom

Public forecast

Using degrees Celsius for public forecast. Weather courtesy of forecast.io.

METAR (pilot weather report)

Closest report is RAF Northolt, 4.1 nm (7.6 km) ESE. Retrieved 2019/03/23 15:50 UTC (21 minutes ago):

EGWU 231550Z 04007KT 9999 SCT045 BKN220 13/02 Q1031 BLU NOSIG

TAF (pilot weather forecast)

Closest forecast is RAF Northolt, 4.1 nm (7.6 km) ESE. Retrieved 2019/03/23 15:00 UTC (1 hour ago):

TAF EGWU 231334Z 2315/2409 04007KT 9999 SCT045 PROB30 2404/2407 7000 HZ